createdAt,value
2023-05-07T00:01:46.558Z,12.46
2023-05-07T00:04:14.754Z,12.45
2023-05-07T00:06:43.242Z,12.41
2023-05-07T00:09:11.965Z,12.40
2023-05-07T00:11:40.126Z,12.39
2023-05-07T00:14:08.229Z,12.35
2023-05-07T00:16:36.267Z,12.32
2023-05-07T00:19:05.076Z,12.31
2023-05-07T00:21:33.027Z,12.30
2023-05-07T00:24:01.040Z,12.30
2023-05-07T00:26:29.217Z,12.28
2023-05-07T00:28:57.300Z,12.20
2023-05-07T00:31:25.358Z,12.15
2023-05-07T00:33:53.290Z,12.10
2023-05-07T00:36:21.385Z,12.02
2023-05-07T00:38:49.420Z,11.93
2023-05-07T00:41:17.451Z,11.83
2023-05-07T00:43:45.704Z,11.78
2023-05-07T00:46:14.960Z,11.74
2023-05-07T00:48:44.202Z,11.73
2023-05-07T00:51:12.655Z,11.70
2023-05-07T00:53:41.073Z,11.69
2023-05-07T00:56:09.551Z,11.69
2023-05-07T00:58:37.827Z,11.71
2023-05-07T01:01:06.039Z,11.70
2023-05-07T01:03:34.303Z,11.69
2023-05-07T01:06:03.851Z,11.66
2023-05-07T01:08:33.486Z,11.64
2023-05-07T01:11:02.308Z,11.58
2023-05-07T01:13:31.091Z,11.53
2023-05-07T01:15:59.235Z,11.46
2023-05-07T01:18:27.892Z,11.39
2023-05-07T01:20:59.350Z,11.36
2023-05-07T01:23:29.112Z,11.36
2023-05-07T01:25:57.059Z,11.38
2023-05-07T01:28:27.354Z,11.42
2023-05-07T01:31:03.507Z,11.45
2023-05-07T01:33:36.482Z,11.48
2023-05-07T01:36:07.847Z,11.52
2023-05-07T01:38:38.653Z,11.55
2023-05-07T01:41:07.853Z,11.58
2023-05-07T01:43:36.361Z,11.63
2023-05-07T01:46:04.956Z,11.66
2023-05-07T01:48:34.893Z,11.69
2023-05-07T01:51:03.347Z,11.69
2023-05-07T01:53:37.729Z,11.69
2023-05-07T01:56:06.601Z,11.71
2023-05-07T01:58:35.209Z,11.70
2023-05-07T02:01:03.593Z,11.66
2023-05-07T02:03:32.151Z,11.64
2023-05-07T02:06:05.579Z,11.62
2023-05-07T02:08:36.711Z,11.61
2023-05-07T02:11:04.991Z,11.60
2023-05-07T02:13:35.879Z,11.62
2023-05-07T02:16:04.900Z,11.65
2023-05-07T02:18:33.275Z,11.65
2023-05-07T02:21:01.500Z,11.70
2023-05-07T02:23:29.646Z,11.73
2023-05-07T02:25:57.764Z,11.77
2023-05-07T02:28:25.838Z,11.82
2023-05-07T02:30:59.825Z,11.87
2023-05-07T02:33:27.995Z,11.91
2023-05-07T02:35:56.400Z,11.94
2023-05-07T02:38:25.028Z,11.96
2023-05-07T02:40:53.414Z,11.96
2023-05-07T02:43:21.364Z,11.95
2023-05-07T02:45:49.945Z,11.94
2023-05-07T02:48:18.005Z,11.93
2023-05-07T02:50:46.068Z,11.93
2023-05-07T02:53:15.073Z,11.92
2023-05-07T02:55:43.164Z,11.93
2023-05-07T02:58:11.453Z,11.95
2023-05-07T03:00:40.063Z,11.96
2023-05-07T03:03:43.584Z,11.96
2023-05-07T03:06:11.643Z,11.98
2023-05-07T03:08:39.700Z,12.02
2023-05-07T03:11:07.788Z,12.06
2023-05-07T03:13:36.068Z,12.09
2023-05-07T03:16:04.494Z,12.13
2023-05-07T03:18:32.629Z,12.15
2023-05-07T03:21:01.001Z,12.16
2023-05-07T03:23:28.987Z,12.15
2023-05-07T03:25:57.378Z,12.14
2023-05-07T03:28:25.655Z,12.13
2023-05-07T03:30:57.827Z,12.12
2023-05-07T03:33:26.550Z,11.92
2023-05-07T03:35:55.247Z,11.89
2023-05-07T03:38:25.409Z,11.91
2023-05-07T03:40:54.103Z,11.95
2023-05-07T03:43:22.377Z,11.91
2023-05-07T03:45:54.024Z,11.87
2023-05-07T03:48:26.021Z,11.82
2023-05-07T03:50:55.280Z,11.83
2023-05-07T03:53:23.278Z,11.87
2023-05-07T03:55:51.744Z,11.83
2023-05-07T03:58:20.344Z,11.81
2023-05-07T04:00:50.178Z,11.90
2023-05-07T04:03:28.676Z,12.01
2023-05-07T04:05:58.944Z,12.08
2023-05-07T04:08:27.415Z,12.07
2023-05-07T04:10:57.519Z,12.10
2023-05-07T04:13:26.830Z,12.14
2023-05-07T04:15:56.444Z,12.17
2023-05-07T04:18:25.433Z,12.22
2023-05-07T04:20:53.693Z,12.30
2023-05-07T04:23:22.805Z,12.37
2023-05-07T04:25:51.622Z,12.43
2023-05-07T04:28:31.512Z,12.50
2023-05-07T04:30:59.745Z,12.57
2023-05-07T04:33:28.035Z,12.63
2023-05-07T04:35:57.658Z,12.69
2023-05-07T04:38:25.812Z,12.80
2023-05-07T04:40:54.516Z,12.91
2023-05-07T04:43:24.709Z,13.01
2023-05-07T04:45:53.437Z,13.14
2023-05-07T04:48:22.953Z,13.26
2023-05-07T04:50:51.579Z,13.34
2023-05-07T04:53:20.951Z,13.41
2023-05-07T04:55:49.220Z,13.47
2023-05-07T04:58:17.329Z,13.50
2023-05-07T05:00:46.221Z,13.51
2023-05-07T05:03:14.537Z,13.52
2023-05-07T05:05:43.668Z,13.54
2023-05-07T05:08:11.946Z,13.54
2023-05-07T05:10:43.738Z,13.46
2023-05-07T05:13:14.145Z,13.44
2023-05-07T05:15:42.578Z,13.42
2023-05-07T05:18:10.621Z,13.40
2023-05-07T05:20:39.357Z,13.43
2023-05-07T05:23:09.377Z,13.47
2023-05-07T05:25:38.518Z,13.55
2023-05-07T05:28:06.872Z,13.48
2023-05-07T05:30:35.842Z,13.37
2023-05-07T05:33:04.157Z,13.34
2023-05-07T05:35:32.962Z,13.37
2023-05-07T05:38:03.958Z,13.42
2023-05-07T05:40:32.090Z,13.32
2023-05-07T05:43:01.263Z,13.23
2023-05-07T05:45:30.504Z,13.18
2023-05-07T05:47:58.856Z,13.16
2023-05-07T05:50:27.691Z,13.22
2023-05-07T05:52:56.340Z,13.28
2023-05-07T05:55:25.091Z,13.37
2023-05-07T05:57:53.476Z,13.44
2023-05-07T06:00:23.738Z,13.47
2023-05-07T06:02:59.817Z,13.52
2023-05-07T06:05:28.470Z,13.60
2023-05-07T06:07:57.506Z,13.67
2023-05-07T06:10:26.945Z,13.74
2023-05-07T06:12:55.555Z,13.80
2023-05-07T06:15:24.177Z,13.86
2023-05-07T06:17:52.698Z,13.95
2023-05-07T06:20:21.004Z,14.03
2023-05-07T06:22:49.649Z,14.09
2023-05-07T06:25:18.164Z,14.13
2023-05-07T06:27:46.256Z,14.15
2023-05-07T06:30:14.296Z,14.07
2023-05-07T06:32:42.834Z,14.04
2023-05-07T06:35:11.413Z,14.11
2023-05-07T06:37:40.869Z,14.20
2023-05-07T06:40:11.011Z,14.28
2023-05-07T06:42:40.412Z,14.33
2023-05-07T06:45:25.051Z,14.43
2023-05-07T06:47:54.839Z,14.51
2023-05-07T06:50:23.769Z,14.57
2023-05-07T06:52:51.994Z,14.59
2023-05-07T06:55:20.667Z,14.62
2023-05-07T06:57:49.020Z,14.65
2023-05-07T07:00:17.860Z,14.68
2023-05-07T07:02:51.358Z,14.65
2023-05-07T07:05:22.074Z,14.67
2023-05-07T07:07:53.911Z,14.68
2023-05-07T07:10:23.734Z,14.64
2023-05-07T07:12:54.039Z,14.64
2023-05-07T07:15:22.725Z,14.66
2023-05-07T07:17:51.156Z,14.66
2023-05-07T07:20:19.223Z,14.61
2023-05-07T07:22:47.530Z,14.61
2023-05-07T07:25:17.658Z,14.63
2023-05-07T07:27:46.224Z,14.62
2023-05-07T07:30:14.837Z,14.60
2023-05-07T07:32:44.480Z,14.55
2023-05-07T07:35:13.944Z,14.50
2023-05-07T07:37:42.051Z,14.38
2023-05-07T07:40:11.056Z,14.24
2023-05-07T07:42:39.647Z,14.02
2023-05-07T07:45:09.472Z,13.81
2023-05-07T07:47:41.642Z,13.59
2023-05-07T07:50:10.992Z,13.48
2023-05-07T07:52:39.960Z,13.43
2023-05-07T07:55:09.325Z,13.40
2023-05-07T07:57:38.022Z,13.38
2023-05-07T08:00:08.663Z,13.30
2023-05-07T08:02:45.256Z,13.25
2023-05-07T08:05:18.589Z,13.22
2023-05-07T08:07:53.082Z,13.22
2023-05-07T08:10:24.500Z,13.28
2023-05-07T08:12:56.722Z,13.36
2023-05-07T08:15:24.747Z,13.43
2023-05-07T08:17:53.122Z,13.47
2023-05-07T08:20:21.945Z,13.49
2023-05-07T08:22:51.135Z,13.49
2023-05-07T08:25:20.068Z,13.47
2023-05-07T08:27:48.146Z,13.45
2023-05-07T08:30:17.269Z,13.48
2023-05-07T08:32:46.325Z,13.51
2023-05-07T08:35:14.643Z,13.54
2023-05-07T08:37:43.082Z,13.59
2023-05-07T08:40:13.779Z,13.61
2023-05-07T08:42:45.747Z,13.59
2023-05-07T08:45:14.670Z,13.54
2023-05-07T08:47:51.854Z,13.55
2023-05-07T08:50:21.937Z,13.52
2023-05-07T08:52:51.215Z,13.47
2023-05-07T08:55:21.301Z,13.44
2023-05-07T08:57:50.234Z,13.43
2023-05-07T09:00:19.261Z,13.41
2023-05-07T09:02:50.830Z,13.40
2023-05-07T09:05:20.246Z,13.43
2023-05-07T09:07:49.296Z,13.50
2023-05-07T09:10:17.926Z,13.56
2023-05-07T09:12:48.184Z,13.64
2023-05-07T09:15:17.413Z,13.65
2023-05-07T09:17:46.087Z,13.64
2023-05-07T09:20:14.428Z,13.62
2023-05-07T09:22:42.579Z,13.65
2023-05-07T09:25:13.515Z,13.66
2023-05-07T09:27:43.704Z,13.69
2023-05-07T09:30:12.363Z,13.79
2023-05-07T09:32:40.597Z,13.90
2023-05-07T09:35:19.457Z,14.01
2023-05-07T09:37:51.536Z,14.16
2023-05-07T09:40:24.683Z,14.29
2023-05-07T09:42:53.234Z,14.38
2023-05-07T09:45:30.068Z,14.51
2023-05-07T09:47:59.781Z,14.56
2023-05-07T09:50:30.144Z,14.63
2023-05-07T09:52:58.693Z,14.69
2023-05-07T09:55:27.043Z,14.67
2023-05-07T09:57:56.877Z,14.64
2023-05-07T10:00:26.913Z,14.69
2023-05-07T10:03:00.374Z,14.75
2023-05-07T10:05:37.225Z,14.85
2023-05-07T10:08:06.878Z,14.95
2023-05-07T10:10:37.012Z,15.00
2023-05-07T10:13:11.322Z,15.07
2023-05-07T10:15:42.847Z,15.15
2023-05-07T10:18:14.815Z,15.21
2023-05-07T10:20:46.753Z,15.33
2023-05-07T10:23:19.498Z,15.39
2023-05-07T10:25:49.616Z,15.44
2023-05-07T10:28:25.883Z,15.52
2023-05-07T10:31:19.821Z,15.55
2023-05-07T10:33:50.288Z,15.55
2023-05-07T10:36:19.906Z,15.53
2023-05-07T10:38:48.531Z,15.49
2023-05-07T10:41:19.883Z,15.57
2023-05-07T10:43:48.313Z,15.75
2023-05-07T10:46:23.872Z,15.94
2023-05-07T10:49:09.670Z,16.11
2023-05-07T10:52:20.444Z,16.28
2023-05-07T10:55:16.125Z,16.32
2023-05-07T10:57:45.023Z,16.56
2023-05-07T11:00:22.423Z,16.79
2023-05-07T11:03:03.658Z,17.03
2023-05-07T11:05:38.577Z,17.24
2023-05-07T11:08:24.005Z,17.51
2023-05-07T11:10:59.594Z,17.63
2023-05-07T11:13:48.679Z,17.67
2023-05-07T11:16:39.143Z,17.90
2023-05-07T11:19:57.562Z,18.08
2023-05-07T11:22:34.659Z,17.97
2023-05-07T11:25:26.423Z,17.94
2023-05-07T11:28:15.493Z,17.85
2023-05-07T11:30:53.790Z,18.02
2023-05-07T11:33:24.035Z,18.28
2023-05-07T11:35:54.978Z,18.50
2023-05-07T11:38:26.084Z,18.58
2023-05-07T11:40:56.591Z,18.60
2023-05-07T11:43:24.674Z,18.65
2023-05-07T11:45:52.968Z,18.74
2023-05-07T11:48:22.700Z,18.94
2023-05-07T11:51:01.976Z,19.05
2023-05-07T11:53:38.695Z,19.07
2023-05-07T11:56:13.233Z,19.11
2023-05-07T11:58:43.222Z,19.16
2023-05-07T12:01:17.632Z,19.28
2023-05-07T12:03:47.446Z,19.43
2023-05-07T12:06:17.704Z,19.57
2023-05-07T12:08:51.452Z,19.60
2023-05-07T12:11:27.258Z,19.55
2023-05-07T12:13:58.983Z,19.56
2023-05-07T12:16:28.658Z,19.69
2023-05-07T12:18:57.367Z,19.81
2023-05-07T12:21:27.440Z,19.90
2023-05-07T12:23:55.697Z,20.07
2023-05-07T12:26:25.822Z,20.27
2023-05-07T12:28:54.329Z,20.44
2023-05-07T12:31:22.445Z,20.52
2023-05-07T12:33:50.846Z,20.60
2023-05-07T12:36:19.379Z,20.58
2023-05-07T12:38:50.979Z,20.42
2023-05-07T12:41:19.563Z,20.29
2023-05-07T12:43:48.141Z,20.24
2023-05-07T12:46:18.368Z,20.25
2023-05-07T12:48:47.374Z,20.25
2023-05-07T12:51:17.294Z,20.28
2023-05-07T12:53:46.237Z,20.26
2023-05-07T12:56:17.356Z,20.33
2023-05-07T12:58:45.749Z,20.45
2023-05-07T13:01:18.501Z,20.51
2023-05-07T13:03:52.255Z,20.63
2023-05-07T13:06:20.529Z,20.75
2023-05-07T13:08:48.605Z,20.86
2023-05-07T13:11:16.968Z,20.95
2023-05-07T13:13:44.943Z,20.86
2023-05-07T13:16:14.602Z,20.77
2023-05-07T13:18:45.985Z,20.79
2023-05-07T13:21:15.194Z,20.65
2023-05-07T13:23:43.692Z,20.33
2023-05-07T13:26:25.608Z,20.10
2023-05-07T13:28:55.944Z,19.91
2023-05-07T13:31:24.668Z,19.73
2023-05-07T13:33:54.146Z,19.60
2023-05-07T13:36:24.604Z,19.48
2023-05-07T13:38:53.076Z,19.38
2023-05-07T13:41:21.509Z,19.33
2023-05-07T13:43:49.869Z,19.32
2023-05-07T13:46:18.874Z,19.39
2023-05-07T13:48:47.200Z,19.44
2023-05-07T13:51:15.851Z,19.55
2023-05-07T13:53:43.830Z,19.72
2023-05-07T13:56:12.099Z,19.91
2023-05-07T13:58:51.802Z,20.05
2023-05-07T14:01:25.001Z,19.98
2023-05-07T14:03:53.312Z,19.87
2023-05-07T14:06:21.624Z,19.80
2023-05-07T14:08:50.679Z,19.86
2023-05-07T14:11:19.233Z,20.04
2023-05-07T14:13:47.516Z,20.13
2023-05-07T14:16:16.726Z,20.10
2023-05-07T14:18:44.928Z,19.98
2023-05-07T14:21:12.878Z,19.88
2023-05-07T14:23:41.191Z,19.76
2023-05-07T14:26:09.234Z,19.73
2023-05-07T14:28:37.258Z,19.78
2023-05-07T14:31:05.365Z,19.97
2023-05-07T14:33:33.608Z,20.19
2023-05-07T14:36:02.128Z,20.35
2023-05-07T14:38:30.334Z,20.46
2023-05-07T14:40:58.381Z,20.51
2023-05-07T14:43:28.671Z,20.41
2023-05-07T14:45:56.984Z,20.26
2023-05-07T14:48:25.312Z,20.16
2023-05-07T14:50:53.371Z,20.18
2023-05-07T14:53:21.664Z,20.21
2023-05-07T14:55:50.278Z,20.04
2023-05-07T14:58:18.561Z,19.90
2023-05-07T15:00:47.157Z,19.93
2023-05-07T15:03:15.492Z,19.98
2023-05-07T15:05:44.617Z,19.98
2023-05-07T15:08:12.569Z,20.06
2023-05-07T15:10:43.452Z,20.13
2023-05-07T15:13:16.043Z,20.12
2023-05-07T15:15:46.542Z,20.02
2023-05-07T15:18:15.690Z,20.03
2023-05-07T15:20:44.202Z,20.10
2023-05-07T15:23:14.173Z,20.24
2023-05-07T15:25:44.681Z,20.33
2023-05-07T15:28:12.864Z,20.32
2023-05-07T15:30:41.578Z,20.25
2023-05-07T15:33:09.678Z,20.17
2023-05-07T15:35:38.223Z,20.11
2023-05-07T15:38:06.841Z,20.10
2023-05-07T15:40:36.507Z,20.08
2023-05-07T15:43:04.524Z,20.00
2023-05-07T15:45:32.588Z,19.89
2023-05-07T15:48:00.806Z,19.78
2023-05-07T15:50:29.934Z,19.63
2023-05-07T15:53:00.755Z,19.50
2023-05-07T15:55:29.068Z,19.36
2023-05-07T15:57:57.895Z,19.21
2023-05-07T16:00:28.764Z,19.11
2023-05-07T16:02:56.946Z,18.97
2023-05-07T16:05:25.981Z,18.87
2023-05-07T16:07:55.162Z,18.78
2023-05-07T16:10:23.477Z,18.55
2023-05-07T16:12:51.678Z,18.21
2023-05-07T16:15:19.922Z,17.41
2023-05-07T16:17:50.276Z,15.61
2023-05-07T16:20:20.183Z,13.91
2023-05-07T16:22:48.868Z,12.89
2023-05-07T16:25:16.934Z,12.58
2023-05-07T16:27:44.914Z,12.27
2023-05-07T16:30:13.225Z,12.04
2023-05-07T16:32:41.270Z,11.91
2023-05-07T16:35:09.904Z,11.85
2023-05-07T16:37:41.959Z,11.80
2023-05-07T16:40:10.880Z,11.72
2023-05-07T16:42:39.570Z,11.63
2023-05-07T16:45:08.172Z,11.54
2023-05-07T16:47:36.267Z,11.55
2023-05-07T16:50:06.053Z,11.58
2023-05-07T16:52:34.106Z,11.62
2023-05-07T16:55:02.416Z,11.66
2023-05-07T16:57:30.791Z,11.71
2023-05-07T17:00:00.690Z,11.77
2023-05-07T17:02:29.369Z,11.85
2023-05-07T17:04:57.741Z,11.93
2023-05-07T17:07:27.542Z,11.97
2023-05-07T17:09:55.508Z,12.02
2023-05-07T17:12:23.586Z,12.06
2023-05-07T17:14:51.657Z,12.08
2023-05-07T17:17:19.660Z,12.11
2023-05-07T17:19:47.536Z,12.15
2023-05-07T17:22:15.512Z,12.17
2023-05-07T17:24:43.504Z,12.20
2023-05-07T17:27:11.679Z,12.23
2023-05-07T17:29:41.030Z,12.26
2023-05-07T17:32:09.136Z,12.29
2023-05-07T17:34:38.008Z,12.30
2023-05-07T17:37:06.015Z,12.28
2023-05-07T17:39:34.148Z,12.27
2023-05-07T17:42:02.202Z,12.27
2023-05-07T17:44:30.233Z,12.27
2023-05-07T17:46:58.231Z,12.22
2023-05-07T17:49:26.334Z,12.16
2023-05-07T17:51:55.563Z,12.17
2023-05-07T17:54:26.287Z,12.18
2023-05-07T17:56:54.475Z,12.19
2023-05-07T17:59:22.499Z,12.22
2023-05-07T18:01:50.788Z,12.24
2023-05-07T18:04:21.966Z,12.25
2023-05-07T18:06:50.001Z,12.26
2023-05-07T18:09:17.984Z,12.29
2023-05-07T18:11:46.133Z,12.32
2023-05-07T18:14:14.175Z,12.32
2023-05-07T18:16:42.269Z,12.33
2023-05-07T18:19:10.227Z,12.33
2023-05-07T18:21:38.311Z,12.35
2023-05-07T18:24:06.888Z,12.42
2023-05-07T18:26:34.904Z,12.42
2023-05-07T18:29:02.857Z,12.39
2023-05-07T18:31:30.992Z,12.37
2023-05-07T18:33:59.055Z,12.35
2023-05-07T18:36:28.332Z,12.32
2023-05-07T18:38:56.393Z,12.30
2023-05-07T18:41:24.587Z,12.32
2023-05-07T18:43:52.622Z,12.33
2023-05-07T18:46:20.780Z,12.32
2023-05-07T18:48:48.860Z,12.34
2023-05-07T18:51:16.735Z,12.35
2023-05-07T18:53:44.736Z,12.32
2023-05-07T18:56:12.816Z,12.29
2023-05-07T18:58:40.963Z,12.28
2023-05-07T19:01:10.845Z,12.27
2023-05-07T19:03:39.068Z,12.25
2023-05-07T19:06:07.125Z,12.25
2023-05-07T19:08:35.322Z,12.24
2023-05-07T19:11:04.049Z,12.23
2023-05-07T19:13:32.458Z,12.24
2023-05-07T19:16:01.440Z,12.25
2023-05-07T19:18:30.780Z,12.25
2023-05-07T19:20:58.809Z,12.24
2023-05-07T19:23:26.975Z,12.23
2023-05-07T19:25:55.008Z,12.08
2023-05-07T19:28:23.003Z,12.05
2023-05-07T19:30:52.650Z,12.08
2023-05-07T19:33:20.668Z,12.10
2023-05-07T19:35:48.679Z,12.11
2023-05-07T19:38:16.764Z,12.09
2023-05-07T19:40:44.709Z,12.10
2023-05-07T19:43:12.592Z,12.10
2023-05-07T19:45:43.609Z,12.11
2023-05-07T19:48:12.217Z,12.12
2023-05-07T19:50:40.809Z,12.15
2023-05-07T19:53:08.960Z,12.19
2023-05-07T19:55:37.260Z,12.17
2023-05-07T19:58:05.325Z,12.09
2023-05-07T20:00:34.162Z,12.00
2023-05-07T20:03:02.252Z,11.93
2023-05-07T20:05:30.423Z,11.97
2023-05-07T20:08:00.144Z,12.00
2023-05-07T20:10:28.271Z,11.93
2023-05-07T20:12:56.331Z,11.86
2023-05-07T20:15:24.286Z,11.80
2023-05-07T20:17:52.254Z,11.83
2023-05-07T20:20:20.535Z,11.87
2023-05-07T20:22:48.592Z,11.90
2023-05-07T20:25:16.710Z,11.83
2023-05-07T20:27:45.058Z,11.73
2023-05-07T20:30:13.693Z,11.78
2023-05-07T20:32:42.331Z,11.84
2023-05-07T20:35:10.568Z,11.89
2023-05-07T20:37:39.946Z,11.92
2023-05-07T20:40:09.000Z,11.94
2023-05-07T20:42:36.924Z,11.98
2023-05-07T20:45:05.081Z,12.00
2023-05-07T20:47:33.973Z,12.02
2023-05-07T20:50:02.323Z,12.01
2023-05-07T20:52:30.267Z,12.00
2023-05-07T20:54:58.326Z,11.98
2023-05-07T20:57:26.246Z,11.94
2023-05-07T20:59:54.237Z,11.93
2023-05-07T21:02:22.190Z,11.94
2023-05-07T21:04:52.583Z,11.93
2023-05-07T21:07:20.699Z,11.93
2023-05-07T21:09:48.708Z,11.94
2023-05-07T21:12:16.724Z,11.95
2023-05-07T21:14:44.654Z,11.98
2023-05-07T21:17:12.932Z,11.98
2023-05-07T21:19:43.470Z,12.01
2023-05-07T21:22:11.718Z,11.97
2023-05-07T21:24:41.653Z,11.95
2023-05-07T21:27:09.853Z,11.92
2023-05-07T21:29:37.961Z,11.89
2023-05-07T21:32:06.469Z,11.89
2023-05-07T21:34:35.410Z,11.85
2023-05-07T21:37:03.463Z,11.85
2023-05-07T21:39:31.739Z,11.86
2023-05-07T21:42:00.137Z,11.90
2023-05-07T21:44:31.646Z,11.92
2023-05-07T21:46:59.717Z,11.94
2023-05-07T21:49:28.020Z,11.95
2023-05-07T21:51:56.360Z,11.92
2023-05-07T21:54:24.369Z,11.84
2023-05-07T21:56:52.453Z,11.84
2023-05-07T21:59:20.472Z,11.91
2023-05-07T22:01:48.689Z,11.98
2023-05-07T22:04:16.838Z,12.04
2023-05-07T22:06:44.784Z,12.05
2023-05-07T22:09:12.866Z,12.05
2023-05-07T22:11:40.928Z,12.07
2023-05-07T22:14:09.053Z,12.12
2023-05-07T22:16:37.187Z,12.14
2023-05-07T22:19:05.250Z,12.18
2023-05-07T22:21:33.175Z,12.22
2023-05-07T22:24:01.128Z,12.20
2023-05-07T22:26:29.263Z,12.15
2023-05-07T22:28:57.094Z,12.11
2023-05-07T22:31:25.093Z,12.06
2023-05-07T22:33:53.106Z,12.04
2023-05-07T22:36:21.103Z,12.02
2023-05-07T22:38:49.004Z,12.01
2023-05-07T22:41:17.033Z,11.99
2023-05-07T22:43:44.955Z,11.96
2023-05-07T22:46:12.974Z,11.89
2023-05-07T22:48:41.045Z,11.78
2023-05-07T22:51:15.256Z,11.76
2023-05-07T22:53:43.307Z,11.75
2023-05-07T22:56:11.318Z,11.77
2023-05-07T22:58:39.320Z,11.75
2023-05-07T23:01:16.648Z,11.74
2023-05-07T23:03:44.781Z,11.74
2023-05-07T23:06:13.750Z,11.79
2023-05-07T23:08:41.685Z,11.77
2023-05-07T23:11:09.684Z,11.78
2023-05-07T23:13:37.686Z,11.82
2023-05-07T23:16:05.962Z,11.83
2023-05-07T23:18:34.373Z,11.82
2023-05-07T23:21:02.410Z,11.78
2023-05-07T23:23:33.830Z,11.74
2023-05-07T23:26:01.904Z,11.76
2023-05-07T23:28:29.974Z,11.71
2023-05-07T23:30:57.973Z,11.62
2023-05-07T23:33:25.966Z,11.55
2023-05-07T23:36:01.351Z,11.50
2023-05-07T23:38:29.510Z,11.49
2023-05-07T23:40:57.736Z,11.50
2023-05-07T23:43:26.002Z,11.51
2023-05-07T23:45:53.979Z,11.50
2023-05-07T23:48:21.948Z,11.49
2023-05-07T23:50:50.051Z,11.50
2023-05-07T23:53:17.994Z,11.53
2023-05-07T23:55:45.928Z,11.56
2023-05-07T23:58:14.032Z,11.60
